• Join FlightAware (Why Join?)
  • Login
  • US Flag 
03:54AM EDT


 

Airport Tracker/Info


-or-


 

Live Flight TrackerFlight Track Log ✈ CTL15 ✈ 22-May-2013 ✈ KMGY - KBKL

Flight Track Log - Related Links

Times and Time Zones

All times are in EDT time to prevent confusion due to time zone crossing. See the CTL15 flight status page for this flight to view local times or setup timezone preferences in your user account.

Time Position Orientation Groundspeed Altitude Reporting Facility
EDT Latitude Longitude Course Direction KTS MPH feet Rate Location/Type
07:48PM 39.6222 -84.1886 59° Northeast 129 148 2,100  Level Indianapolis Center
07:48PM 39.6269 -84.1783 59° Northeast 139 160 2,200 420 Climbing Indianapolis Center
07:49PM 39.6536 -84.1331 53° Northeast 159 183 2,700 360 Climbing Indianapolis Center
07:50PM 39.6581 -84.1269 47° Northeast 151 174 2,700 300 Level Indianapolis Center
07:50PM 39.6867 -84.0858 48° Northeast 174 200 3,000 240 Climbing Indianapolis Center
07:51PM 39.6958 -84.0719 49° Northeast 164 189 3,000  Level Indianapolis Center
07:51PM 39.7178 -84.0383 50° Northeast 179 206 3,000  Level Indianapolis Center
07:52PM 39.7289 -84.0225 48° Northeast 172 198 3,000  Level Indianapolis Center
07:52PM 39.7506 -83.9939 45° Northeast 176 203 3,000  Level Indianapolis Center
07:53PM 39.7631 -83.9772 46° Northeast 175 201 3,000  Level Indianapolis Center
07:53PM 39.7817 -83.9436 54° Northeast 175 201 3,000  Level Indianapolis Center
07:54PM 39.7961 -83.9289 38° Northeast 175 201 3,000 -120 Level Indianapolis Center
07:54PM 39.8208 -83.8969 45° Northeast 187 215 2,900  Descending Indianapolis Center
07:55PM 39.8347 -83.8867 30° Northeast 177 204 3,000 60 Climbing Indianapolis Center
07:55PM 39.8617 -83.8561 41° Northeast 180 207 3,000 -120 Level Indianapolis Center
07:56PM 39.8742 -83.8442 36° Northeast 179 206 2,900  Descending Indianapolis Center
07:56PM 39.9003 -83.8147 41° Northeast 181 208 3,000 180 Climbing Indianapolis Center
07:57PM 39.9128 -83.8000 42° Northeast 182 209 3,100  Climbing Indianapolis Center
07:57PM 39.9389 -83.7733 38° Northeast 182 209 3,000 -120 Descending Indianapolis Center
07:58PM 39.9514 -83.7567 46° Northeast 181 208 3,000  Level Indianapolis Center
07:58PM 39.9758 -83.7289 41° Northeast 183 211 3,000  Level Indianapolis Center
07:59PM 39.9900 -83.7106 45° Northeast 183 211 3,000  Level Indianapolis Center
08:00PM 40.0150 -83.6822 41° Northeast 189 217 3,000  Level Indianapolis Center
08:00PM 40.0281 -83.6622 50° Northeast 186 214 3,000  Level Indianapolis Center
08:01PM 40.0544 -83.6300 43° Northeast 186 214 3,000  Level Indianapolis Center
08:01PM 40.0664 -83.6144 45° Northeast 187 215 3,000 -120 Level Indianapolis Center
08:02PM 40.0894 -83.5797 49° Northeast 187 215 2,900  Descending Indianapolis Center
08:02PM 40.1022 -83.5653 41° Northeast 187 215 3,000 60 Climbing Indianapolis Center
08:03PM 40.1264 -83.5325 46° Northeast 184 212 3,000 60 Level Indianapolis Center
08:03PM 40.1397 -83.5172 41° Northeast 186 214 3,100 -240 Climbing Indianapolis Center
08:04PM 40.1633 -83.4853 46° Northeast 186 214 2,800 -120 Descending Indianapolis Center
08:04PM 40.1789 -83.4694 38° Northeast 188 216 3,000 60 Climbing Indianapolis Center
08:05PM 40.2003 -83.4378 49° Northeast 185 213 2,900  Descending Indianapolis Center
08:05PM 40.2142 -83.4200 44° Northeast 186 214 3,000  Climbing Indianapolis Center
08:06PM 40.2331 -83.3900 50° Northeast 182 209 2,900 -120 Descending Indianapolis Center
08:06PM 40.2472 -83.3703 47° Northeast 182 209 2,900 -120 Level Indianapolis Center
08:07PM 40.2700 -83.3397 46° Northeast 188 216 2,800 60 Descending Indianapolis Center
08:07PM 40.2833 -83.3228 44° Northeast 182 209 3,000 60 Climbing Indianapolis Center
08:08PM 40.3067 -83.2950 42° Northeast 176 203 2,900  Descending Indianapolis Center
08:08PM 40.3206 -83.2775 44° Northeast 181 208 3,000 60 Climbing Indianapolis Center
08:09PM 40.3581 -83.2311 43° Northeast 182 209 3,000  Level Indianapolis Center
08:10PM 40.4028 -83.1781 42° Northeast 183 211 3,000  Level Indianapolis Center
08:11PM 40.4400 -83.1372 40° Northeast 179 206 3,100  Climbing Indianapolis Center
08:12PM 40.4769 -83.0936 42° Northeast 177 204 3,000 -60 Descending Indianapolis Center
08:13PM 40.5128 -83.0467 45° Northeast 178 205 3,000  Level Indianapolis Center
08:14PM 40.5475 -82.9978 47° Northeast 180 207 3,000  Level Indianapolis Center
08:15PM 40.5858 -82.9478 45° Northeast 183 211 3,000  Level Indianapolis Center
08:16PM 40.6206 -82.9003 46° Northeast 179 206 3,000  Level Indianapolis Center
08:17PM 40.6564 -82.8500 47° Northeast 185 213 3,100  Climbing Indianapolis Center
08:18PM 40.6881 -82.7986 51° Northeast 181 208 3,000  Descending Indianapolis Center
08:19PM 40.7197 -82.7450 52° Northeast 183 211 3,100  Climbing Indianapolis Center
08:20PM 40.7536 -82.6914 50° Northeast 188 216 3,100 -120 Level Indianapolis Center
08:21PM 40.7856 -82.6347 53° Northeast 189 217 2,900 -240 Descending Indianapolis Center